sensor_id;sensor_type;location;lat;lon;timestamp;P1;durP1;ratioP1;P2;durP2;ratioP2
56122;SDS011;42426;46.104;19.656;2024-01-06T00:02:01;34.88;;;15.48;;
56122;SDS011;42426;46.104;19.656;2024-01-06T00:04:27;26.85;;;18.20;;
56122;SDS011;42426;46.104;19.656;2024-01-06T00:06:53;28.45;;;17.70;;
56122;SDS011;42426;46.104;19.656;2024-01-06T00:09:19;34.53;;;16.13;;
56122;SDS011;42426;46.104;19.656;2024-01-06T00:11:46;23.92;;;15.68;;
56122;SDS011;42426;46.104;19.656;2024-01-06T00:14:12;23.83;;;14.75;;
56122;SDS011;42426;46.104;19.656;2024-01-06T00:16:38;21.73;;;14.15;;
56122;SDS011;42426;46.104;19.656;2024-01-06T00:19:04;25.13;;;14.98;;
56122;SDS011;42426;46.104;19.656;2024-01-06T00:21:30;23.00;;;13.95;;
56122;SDS011;42426;46.104;19.656;2024-01-06T00:23:56;23.92;;;15.05;;
56122;SDS011;42426;46.104;19.656;2024-01-06T00:26:22;25.50;;;14.98;;
56122;SDS011;42426;46.104;19.656;2024-01-06T00:28:51;20.77;;;13.75;;
56122;SDS011;42426;46.104;19.656;2024-01-06T00:31:17;21.35;;;14.80;;
56122;SDS011;42426;46.104;19.656;2024-01-06T00:33:42;25.58;;;15.52;;
56122;SDS011;42426;46.104;19.656;2024-01-06T00:36:08;24.33;;;16.83;;
56122;SDS011;42426;46.104;19.656;2024-01-06T00:38:34;20.13;;;14.50;;
56122;SDS011;42426;46.104;19.656;2024-01-06T00:41:00;25.48;;;14.27;;
56122;SDS011;42426;46.104;19.656;2024-01-06T00:43:26;24.60;;;16.73;;
56122;SDS011;42426;46.104;19.656;2024-01-06T00:45:52;23.45;;;16.02;;
56122;SDS011;42426;46.104;19.656;2024-01-06T00:48:18;25.50;;;16.95;;
56122;SDS011;42426;46.104;19.656;2024-01-06T00:50:44;26.05;;;15.50;;
56122;SDS011;42426;46.104;19.656;2024-01-06T00:53:12;28.83;;;18.65;;
56122;SDS011;42426;46.104;19.656;2024-01-06T00:55:38;29.20;;;16.50;;
56122;SDS011;42426;46.104;19.656;2024-01-06T00:58:03;27.67;;;15.20;;
56122;SDS011;42426;46.104;19.656;2024-01-06T01:00:29;28.17;;;17.85;;
56122;SDS011;42426;46.104;19.656;2024-01-06T01:02:55;28.80;;;17.73;;
56122;SDS011;42426;46.104;19.656;2024-01-06T01:05:21;26.58;;;16.65;;
56122;SDS011;42426;46.104;19.656;2024-01-06T01:07:46;28.50;;;16.70;;
56122;SDS011;42426;46.104;19.656;2024-01-06T01:10:12;25.13;;;15.30;;
56122;SDS011;42426;46.104;19.656;2024-01-06T01:12:39;26.92;;;17.05;;
56122;SDS011;42426;46.104;19.656;2024-01-06T01:15:05;21.13;;;14.88;;
56122;SDS011;42426;46.104;19.656;2024-01-06T01:17:31;24.17;;;16.10;;
56122;SDS011;42426;46.104;19.656;2024-01-06T01:19:57;22.13;;;15.63;;
56122;SDS011;42426;46.104;19.656;2024-01-06T01:22:23;25.52;;;15.38;;
56122;SDS011;42426;46.104;19.656;2024-01-06T01:24:48;21.35;;;15.02;;
56122;SDS011;42426;46.104;19.656;2024-01-06T01:27:14;23.48;;;15.80;;
56122;SDS011;42426;46.104;19.656;2024-01-06T01:29:41;31.05;;;18.08;;
56122;SDS011;42426;46.104;19.656;2024-01-06T01:32:08;29.13;;;17.92;;
56122;SDS011;42426;46.104;19.656;2024-01-06T01:34:34;27.92;;;18.35;;
56122;SDS011;42426;46.104;19.656;2024-01-06T01:37:00;23.67;;;17.05;;
56122;SDS011;42426;46.104;19.656;2024-01-06T01:39:26;26.45;;;17.85;;
56122;SDS011;42426;46.104;19.656;2024-01-06T01:41:51;31.55;;;18.55;;
56122;SDS011;42426;46.104;19.656;2024-01-06T01:44:17;26.05;;;17.23;;
56122;SDS011;42426;46.104;19.656;2024-01-06T01:46:43;29.80;;;17.45;;
56122;SDS011;42426;46.104;19.656;2024-01-06T01:49:10;27.92;;;16.33;;
56122;SDS011;42426;46.104;19.656;2024-01-06T01:51:35;23.50;;;15.75;;
56122;SDS011;42426;46.104;19.656;2024-01-06T01:54:02;23.20;;;15.45;;
56122;SDS011;42426;46.104;19.656;2024-01-06T01:56:32;27.63;;;16.23;;
56122;SDS011;42426;46.104;19.656;2024-01-06T01:59:05;22.10;;;16.40;;
56122;SDS011;42426;46.104;19.656;2024-01-06T02:01:34;25.10;;;15.98;;
56122;SDS011;42426;46.104;19.656;2024-01-06T02:04:00;29.27;;;15.90;;
56122;SDS011;42426;46.104;19.656;2024-01-06T02:06:25;23.98;;;15.23;;
56122;SDS011;42426;46.104;19.656;2024-01-06T02:08:52;23.33;;;16.42;;
56122;SDS011;42426;46.104;19.656;2024-01-06T02:11:18;19.60;;;14.25;;
56122;SDS011;42426;46.104;19.656;2024-01-06T02:13:44;21.83;;;14.95;;
56122;SDS011;42426;46.104;19.656;2024-01-06T02:16:10;21.55;;;14.40;;
56122;SDS011;42426;46.104;19.656;2024-01-06T02:18:39;21.27;;;15.70;;
56122;SDS011;42426;46.104;19.656;2024-01-06T02:21:04;20.60;;;14.75;;
56122;SDS011;42426;46.104;19.656;2024-01-06T02:23:33;21.20;;;14.88;;
56122;SDS011;42426;46.104;19.656;2024-01-06T02:26:00;23.38;;;14.98;;
56122;SDS011;42426;46.104;19.656;2024-01-06T02:28:26;23.63;;;14.77;;
56122;SDS011;42426;46.104;19.656;2024-01-06T02:30:52;30.48;;;17.00;;
56122;SDS011;42426;46.104;19.656;2024-01-06T02:33:18;26.77;;;14.85;;
56122;SDS011;42426;46.104;19.656;2024-01-06T02:35:47;23.98;;;16.27;;
56122;SDS011;42426;46.104;19.656;2024-01-06T02:38:13;21.00;;;15.77;;
56122;SDS011;42426;46.104;19.656;2024-01-06T02:40:39;26.38;;;15.98;;
56122;SDS011;42426;46.104;19.656;2024-01-06T02:43:04;26.75;;;16.33;;
56122;SDS011;42426;46.104;19.656;2024-01-06T02:45:31;23.58;;;16.00;;
56122;SDS011;42426;46.104;19.656;2024-01-06T02:47:57;22.63;;;14.45;;
56122;SDS011;42426;46.104;19.656;2024-01-06T02:50:23;27.98;;;15.77;;
56122;SDS011;42426;46.104;19.656;2024-01-06T02:52:48;26.25;;;14.98;;
56122;SDS011;42426;46.104;19.656;2024-01-06T02:55:16;25.50;;;16.80;;
56122;SDS011;42426;46.104;19.656;2024-01-06T02:57:42;22.42;;;15.15;;
56122;SDS011;42426;46.104;19.656;2024-01-06T03:00:08;31.00;;;17.48;;
56122;SDS011;42426;46.104;19.656;2024-01-06T03:02:34;28.98;;;17.98;;
56122;SDS011;42426;46.104;19.656;2024-01-06T03:05:01;23.27;;;15.73;;
56122;SDS011;42426;46.104;19.656;2024-01-06T03:07:27;28.00;;;17.30;;
56122;SDS011;42426;46.104;19.656;2024-01-06T03:09:53;22.50;;;13.75;;
56122;SDS011;42426;46.104;19.656;2024-01-06T03:12:19;22.70;;;15.85;;
56122;SDS011;42426;46.104;19.656;2024-01-06T03:14:45;26.10;;;14.45;;
56122;SDS011;42426;46.104;19.656;2024-01-06T03:17:10;19.63;;;14.68;;
56122;SDS011;42426;46.104;19.656;2024-01-06T03:19:36;22.45;;;15.73;;
56122;SDS011;42426;46.104;19.656;2024-01-06T03:22:02;23.77;;;15.55;;
56122;SDS011;42426;46.104;19.656;2024-01-06T03:24:28;22.05;;;15.27;;
56122;SDS011;42426;46.104;19.656;2024-01-06T03:26:55;21.60;;;14.40;;
56122;SDS011;42426;46.104;19.656;2024-01-06T03:29:21;25.45;;;15.63;;
56122;SDS011;42426;46.104;19.656;2024-01-06T03:31:47;25.15;;;14.80;;
56122;SDS011;42426;46.104;19.656;2024-01-06T03:34:13;21.77;;;15.07;;
56122;SDS011;42426;46.104;19.656;2024-01-06T03:36:39;21.63;;;14.27;;
56122;SDS011;42426;46.104;19.656;2024-01-06T03:39:05;21.23;;;15.25;;
56122;SDS011;42426;46.104;19.656;2024-01-06T03:41:31;21.75;;;15.15;;
56122;SDS011;42426;46.104;19.656;2024-01-06T03:43:57;19.85;;;14.60;;
56122;SDS011;42426;46.104;19.656;2024-01-06T03:46:23;26.30;;;16.83;;
56122;SDS011;42426;46.104;19.656;2024-01-06T03:48:51;26.55;;;14.73;;
56122;SDS011;42426;46.104;19.656;2024-01-06T03:51:17;18.75;;;12.90;;
56122;SDS011;42426;46.104;19.656;2024-01-06T03:53:43;20.15;;;13.02;;
56122;SDS011;42426;46.104;19.656;2024-01-06T03:56:08;17.67;;;11.93;;
56122;SDS011;42426;46.104;19.656;2024-01-06T03:58:34;22.67;;;12.10;;
56122;SDS011;42426;46.104;19.656;2024-01-06T04:01:00;18.60;;;11.25;;
56122;SDS011;42426;46.104;19.656;2024-01-06T04:03:26;20.83;;;11.82;;
56122;SDS011;42426;46.104;19.656;2024-01-06T04:05:52;16.98;;;9.52;;
56122;SDS011;42426;46.104;19.656;2024-01-06T04:08:18;14.93;;;9.82;;
56122;SDS011;42426;46.104;19.656;2024-01-06T04:10:44;15.10;;;10.45;;
56122;SDS011;42426;46.104;19.656;2024-01-06T04:13:10;18.05;;;9.90;;
56122;SDS011;42426;46.104;19.656;2024-01-06T04:15:36;16.55;;;10.23;;
56122;SDS011;42426;46.104;19.656;2024-01-06T04:18:03;11.88;;;8.65;;
56122;SDS011;42426;46.104;19.656;2024-01-06T04:20:30;14.55;;;8.68;;
56122;SDS011;42426;46.104;19.656;2024-01-06T04:22:56;14.63;;;9.40;;
56122;SDS011;42426;46.104;19.656;2024-01-06T04:25:22;14.05;;;8.80;;
56122;SDS011;42426;46.104;19.656;2024-01-06T04:27:49;13.30;;;8.80;;
56122;SDS011;42426;46.104;19.656;2024-01-06T04:30:15;13.82;;;8.52;;
56122;SDS011;42426;46.104;19.656;2024-01-06T04:32:41;11.48;;;7.55;;
56122;SDS011;42426;46.104;19.656;2024-01-06T04:35:07;15.85;;;8.25;;
56122;SDS011;42426;46.104;19.656;2024-01-06T04:37:33;13.45;;;7.55;;
56122;SDS011;42426;46.104;19.656;2024-01-06T04:40:00;12.02;;;6.80;;
56122;SDS011;42426;46.104;19.656;2024-01-06T04:42:26;13.95;;;8.57;;
56122;SDS011;42426;46.104;19.656;2024-01-06T04:44:52;12.20;;;8.23;;
56122;SDS011;42426;46.104;19.656;2024-01-06T04:47:18;13.98;;;8.90;;
56122;SDS011;42426;46.104;19.656;2024-01-06T04:49:44;16.98;;;7.53;;
56122;SDS011;42426;46.104;19.656;2024-01-06T04:52:10;9.93;;;7.03;;
56122;SDS011;42426;46.104;19.656;2024-01-06T04:54:37;11.70;;;7.28;;
56122;SDS011;42426;46.104;19.656;2024-01-06T04:57:03;12.10;;;7.45;;
56122;SDS011;42426;46.104;19.656;2024-01-06T04:59:30;9.65;;;6.53;;
56122;SDS011;42426;46.104;19.656;2024-01-06T05:01:57;11.27;;;7.15;;
56122;SDS011;42426;46.104;19.656;2024-01-06T05:04:23;9.35;;;7.13;;
56122;SDS011;42426;46.104;19.656;2024-01-06T05:06:50;11.57;;;7.78;;
56122;SDS011;42426;46.104;19.656;2024-01-06T05:09:17;12.02;;;6.88;;
56122;SDS011;42426;46.104;19.656;2024-01-06T05:11:44;11.13;;;6.50;;
56122;SDS011;42426;46.104;19.656;2024-01-06T05:14:10;9.95;;;7.15;;
56122;SDS011;42426;46.104;19.656;2024-01-06T05:16:36;15.32;;;7.32;;
56122;SDS011;42426;46.104;19.656;2024-01-06T05:19:04;10.25;;;6.63;;
56122;SDS011;42426;46.104;19.656;2024-01-06T05:21:30;11.73;;;7.97;;
56122;SDS011;42426;46.104;19.656;2024-01-06T05:23:56;8.45;;;6.47;;
56122;SDS011;42426;46.104;19.656;2024-01-06T05:26:21;7.53;;;6.40;;
56122;SDS011;42426;46.104;19.656;2024-01-06T05:28:47;13.43;;;7.45;;
56122;SDS011;42426;46.104;19.656;2024-01-06T05:31:13;9.68;;;6.70;;
56122;SDS011;42426;46.104;19.656;2024-01-06T05:33:39;11.40;;;7.00;;
56122;SDS011;42426;46.104;19.656;2024-01-06T05:36:07;12.77;;;6.75;;
56122;SDS011;42426;46.104;19.656;2024-01-06T05:38:33;12.75;;;6.38;;
56122;SDS011;42426;46.104;19.656;2024-01-06T05:40:59;12.70;;;7.35;;
56122;SDS011;42426;46.104;19.656;2024-01-06T05:43:24;12.07;;;7.30;;
56122;SDS011;42426;46.104;19.656;2024-01-06T05:45:51;11.30;;;7.78;;
56122;SDS011;42426;46.104;19.656;2024-01-06T05:48:17;10.98;;;7.25;;
56122;SDS011;42426;46.104;19.656;2024-01-06T05:50:44;14.05;;;7.95;;
56122;SDS011;42426;46.104;19.656;2024-01-06T05:53:10;9.55;;;6.43;;
56122;SDS011;42426;46.104;19.656;2024-01-06T05:55:36;10.50;;;7.47;;
56122;SDS011;42426;46.104;19.656;2024-01-06T05:58:02;9.60;;;6.82;;
56122;SDS011;42426;46.104;19.656;2024-01-06T06:00:28;14.30;;;7.97;;
56122;SDS011;42426;46.104;19.656;2024-01-06T06:02:56;11.65;;;6.50;;
56122;SDS011;42426;46.104;19.656;2024-01-06T06:05:22;11.07;;;7.47;;
56122;SDS011;42426;46.104;19.656;2024-01-06T06:07:48;12.55;;;7.32;;
56122;SDS011;42426;46.104;19.656;2024-01-06T06:10:14;10.27;;;6.10;;
56122;SDS011;42426;46.104;19.656;2024-01-06T06:12:41;10.07;;;6.75;;
56122;SDS011;42426;46.104;19.656;2024-01-06T06:15:07;12.13;;;7.15;;
56122;SDS011;42426;46.104;19.656;2024-01-06T06:17:33;12.80;;;6.60;;
56122;SDS011;42426;46.104;19.656;2024-01-06T06:19:59;10.90;;;7.45;;
56122;SDS011;42426;46.104;19.656;2024-01-06T06:22:28;12.52;;;7.50;;
56122;SDS011;42426;46.104;19.656;2024-01-06T06:24:57;8.73;;;6.90;;
56122;SDS011;42426;46.104;19.656;2024-01-06T06:27:23;8.40;;;6.88;;
56122;SDS011;42426;46.104;19.656;2024-01-06T06:29:49;12.10;;;7.13;;
56122;SDS011;42426;46.104;19.656;2024-01-06T06:32:15;13.05;;;6.10;;
56122;SDS011;42426;46.104;19.656;2024-01-06T06:34:42;12.23;;;6.85;;
56122;SDS011;42426;46.104;19.656;2024-01-06T06:37:07;11.93;;;7.05;;
56122;SDS011;42426;46.104;19.656;2024-01-06T06:39:33;10.68;;;6.68;;
56122;SDS011;42426;46.104;19.656;2024-01-06T06:42:00;8.95;;;6.68;;
56122;SDS011;42426;46.104;19.656;2024-01-06T06:44:26;9.95;;;6.35;;
56122;SDS011;42426;46.104;19.656;2024-01-06T06:46:52;10.57;;;6.75;;
56122;SDS011;42426;46.104;19.656;2024-01-06T06:49:18;9.77;;;6.60;;
56122;SDS011;42426;46.104;19.656;2024-01-06T06:51:44;10.75;;;6.60;;
56122;SDS011;42426;46.104;19.656;2024-01-06T06:54:13;11.13;;;7.03;;
56122;SDS011;42426;46.104;19.656;2024-01-06T06:56:41;11.77;;;6.70;;
56122;SDS011;42426;46.104;19.656;2024-01-06T06:59:07;10.02;;;6.82;;
56122;SDS011;42426;46.104;19.656;2024-01-06T07:01:33;10.18;;;7.35;;
56122;SDS011;42426;46.104;19.656;2024-01-06T07:03:59;12.18;;;7.38;;
56122;SDS011;42426;46.104;19.656;2024-01-06T07:06:25;14.95;;;7.55;;
56122;SDS011;42426;46.104;19.656;2024-01-06T07:08:50;9.35;;;6.72;;
56122;SDS011;42426;46.104;19.656;2024-01-06T07:11:16;11.30;;;7.57;;
56122;SDS011;42426;46.104;19.656;2024-01-06T07:13:43;11.18;;;8.07;;
56122;SDS011;42426;46.104;19.656;2024-01-06T07:16:09;11.45;;;7.45;;
56122;SDS011;42426;46.104;19.656;2024-01-06T07:18:36;10.82;;;6.85;;
56122;SDS011;42426;46.104;19.656;2024-01-06T07:21:04;12.88;;;7.60;;
56122;SDS011;42426;46.104;19.656;2024-01-06T07:23:31;10.88;;;6.55;;
56122;SDS011;42426;46.104;19.656;2024-01-06T07:25:57;11.75;;;7.05;;
56122;SDS011;42426;46.104;19.656;2024-01-06T07:28:23;13.95;;;7.60;;
56122;SDS011;42426;46.104;19.656;2024-01-06T07:30:49;14.30;;;8.35;;
56122;SDS011;42426;46.104;19.656;2024-01-06T07:33:15;13.93;;;8.70;;
56122;SDS011;42426;46.104;19.656;2024-01-06T07:35:40;13.80;;;8.40;;
56122;SDS011;42426;46.104;19.656;2024-01-06T07:38:09;12.20;;;7.80;;
56122;SDS011;42426;46.104;19.656;2024-01-06T07:40:35;16.83;;;9.15;;
56122;SDS011;42426;46.104;19.656;2024-01-06T07:43:01;16.95;;;9.77;;
56122;SDS011;42426;46.104;19.656;2024-01-06T07:45:27;14.30;;;8.48;;
56122;SDS011;42426;46.104;19.656;2024-01-06T07:47:53;14.85;;;8.70;;
56122;SDS011;42426;46.104;19.656;2024-01-06T07:50:19;12.82;;;8.45;;
56122;SDS011;42426;46.104;19.656;2024-01-06T07:52:45;16.90;;;9.95;;
56122;SDS011;42426;46.104;19.656;2024-01-06T07:55:10;18.75;;;10.15;;
56122;SDS011;42426;46.104;19.656;2024-01-06T07:57:36;16.30;;;9.00;;
56122;SDS011;42426;46.104;19.656;2024-01-06T08:00:02;19.23;;;10.13;;
56122;SDS011;42426;46.104;19.656;2024-01-06T08:02:28;12.82;;;8.57;;
56122;SDS011;42426;46.104;19.656;2024-01-06T08:04:54;13.27;;;8.75;;
56122;SDS011;42426;46.104;19.656;2024-01-06T08:07:21;13.60;;;9.48;;
56122;SDS011;42426;46.104;19.656;2024-01-06T08:09:47;13.30;;;8.27;;
56122;SDS011;42426;46.104;19.656;2024-01-06T08:12:13;15.25;;;8.55;;
56122;SDS011;42426;46.104;19.656;2024-01-06T08:14:40;9.80;;;7.80;;
56122;SDS011;42426;46.104;19.656;2024-01-06T08:17:05;11.68;;;7.78;;
56122;SDS011;42426;46.104;19.656;2024-01-06T08:19:31;14.68;;;8.73;;
56122;SDS011;42426;46.104;19.656;2024-01-06T08:21:58;12.35;;;8.25;;
56122;SDS011;42426;46.104;19.656;2024-01-06T08:24:24;11.95;;;8.07;;
56122;SDS011;42426;46.104;19.656;2024-01-06T08:26:50;17.02;;;9.07;;
56122;SDS011;42426;46.104;19.656;2024-01-06T08:29:16;12.88;;;7.80;;
56122;SDS011;42426;46.104;19.656;2024-01-06T08:31:44;13.07;;;8.15;;
56122;SDS011;42426;46.104;19.656;2024-01-06T08:34:10;14.68;;;9.32;;
56122;SDS011;42426;46.104;19.656;2024-01-06T08:36:36;17.40;;;9.98;;
56122;SDS011;42426;46.104;19.656;2024-01-06T08:39:02;13.57;;;8.00;;
56122;SDS011;42426;46.104;19.656;2024-01-06T08:41:28;17.23;;;9.75;;
56122;SDS011;42426;46.104;19.656;2024-01-06T08:43:53;15.20;;;8.15;;
56122;SDS011;42426;46.104;19.656;2024-01-06T08:46:19;17.55;;;9.40;;
56122;SDS011;42426;46.104;19.656;2024-01-06T08:48:45;14.40;;;8.73;;
56122;SDS011;42426;46.104;19.656;2024-01-06T08:51:11;16.67;;;8.88;;
56122;SDS011;42426;46.104;19.656;2024-01-06T08:53:36;12.93;;;8.10;;
56122;SDS011;42426;46.104;19.656;2024-01-06T08:56:02;12.70;;;7.72;;
56122;SDS011;42426;46.104;19.656;2024-01-06T08:58:28;13.40;;;8.68;;
56122;SDS011;42426;46.104;19.656;2024-01-06T09:00:54;12.75;;;9.82;;
56122;SDS011;42426;46.104;19.656;2024-01-06T09:03:20;11.57;;;8.05;;
56122;SDS011;42426;46.104;19.656;2024-01-06T09:05:54;11.25;;;7.70;;
56122;SDS011;42426;46.104;19.656;2024-01-06T09:08:21;14.15;;;7.63;;
56122;SDS011;42426;46.104;19.656;2024-01-06T09:10:47;15.93;;;8.55;;
56122;SDS011;42426;46.104;19.656;2024-01-06T09:13:16;17.08;;;9.70;;
56122;SDS011;42426;46.104;19.656;2024-01-06T09:15:41;17.05;;;9.95;;
56122;SDS011;42426;46.104;19.656;2024-01-06T09:18:08;14.88;;;9.48;;
56122;SDS011;42426;46.104;19.656;2024-01-06T09:20:35;14.30;;;9.57;;
56122;SDS011;42426;46.104;19.656;2024-01-06T09:23:01;15.57;;;9.32;;
56122;SDS011;42426;46.104;19.656;2024-01-06T09:25:27;15.75;;;9.68;;
56122;SDS011;42426;46.104;19.656;2024-01-06T09:27:52;19.92;;;11.25;;
56122;SDS011;42426;46.104;19.656;2024-01-06T09:30:18;17.45;;;9.82;;
56122;SDS011;42426;46.104;19.656;2024-01-06T09:32:44;15.85;;;10.15;;
56122;SDS011;42426;46.104;19.656;2024-01-06T09:35:13;17.63;;;10.40;;
56122;SDS011;42426;46.104;19.656;2024-01-06T09:37:39;14.40;;;9.10;;
56122;SDS011;42426;46.104;19.656;2024-01-06T09:40:06;18.42;;;12.77;;
56122;SDS011;42426;46.104;19.656;2024-01-06T09:42:36;20.27;;;13.82;;
56122;SDS011;42426;46.104;19.656;2024-01-06T09:45:02;22.45;;;15.63;;
56122;SDS011;42426;46.104;19.656;2024-01-06T09:47:28;20.67;;;14.30;;
56122;SDS011;42426;46.104;19.656;2024-01-06T09:50:00;19.52;;;12.38;;
56122;SDS011;42426;46.104;19.656;2024-01-06T09:52:29;22.48;;;14.30;;
56122;SDS011;42426;46.104;19.656;2024-01-06T09:54:59;16.35;;;11.73;;
56122;SDS011;42426;46.104;19.656;2024-01-06T09:57:27;17.60;;;12.88;;
56122;SDS011;42426;46.104;19.656;2024-01-06T09:59:54;23.85;;;17.13;;
56122;SDS011;42426;46.104;19.656;2024-01-06T10:02:21;32.80;;;22.85;;
56122;SDS011;42426;46.104;19.656;2024-01-06T10:04:48;27.48;;;20.40;;
56122;SDS011;42426;46.104;19.656;2024-01-06T10:07:14;32.05;;;23.65;;
56122;SDS011;42426;46.104;19.656;2024-01-06T10:09:40;35.95;;;24.80;;
56122;SDS011;42426;46.104;19.656;2024-01-06T10:12:07;25.13;;;18.60;;
56122;SDS011;42426;46.104;19.656;2024-01-06T10:14:33;18.73;;;11.68;;
56122;SDS011;42426;46.104;19.656;2024-01-06T10:16:59;17.25;;;11.68;;
56122;SDS011;42426;46.104;19.656;2024-01-06T10:19:25;15.90;;;10.55;;
56122;SDS011;42426;46.104;19.656;2024-01-06T10:21:54;18.88;;;12.32;;
56122;SDS011;42426;46.104;19.656;2024-01-06T10:24:20;18.20;;;10.80;;
56122;SDS011;42426;46.104;19.656;2024-01-06T10:26:46;14.95;;;9.20;;
56122;SDS011;42426;46.104;19.656;2024-01-06T10:29:14;14.75;;;9.40;;
56122;SDS011;42426;46.104;19.656;2024-01-06T10:31:40;17.48;;;10.07;;
56122;SDS011;42426;46.104;19.656;2024-01-06T10:34:06;15.48;;;10.10;;
56122;SDS011;42426;46.104;19.656;2024-01-06T10:36:33;16.52;;;10.02;;
56122;SDS011;42426;46.104;19.656;2024-01-06T10:38:58;21.90;;;10.98;;
56122;SDS011;42426;46.104;19.656;2024-01-06T10:41:26;16.55;;;8.98;;
56122;SDS011;42426;46.104;19.656;2024-01-06T10:43:55;14.65;;;9.25;;
56122;SDS011;42426;46.104;19.656;2024-01-06T10:46:23;14.27;;;7.95;;
56122;SDS011;42426;46.104;19.656;2024-01-06T10:48:50;10.75;;;7.50;;
56122;SDS011;42426;46.104;19.656;2024-01-06T10:51:19;11.82;;;8.52;;
56122;SDS011;42426;46.104;19.656;2024-01-06T10:53:48;13.65;;;8.85;;
56122;SDS011;42426;46.104;19.656;2024-01-06T10:56:15;13.63;;;9.27;;
56122;SDS011;42426;46.104;19.656;2024-01-06T10:58:47;15.00;;;8.55;;
56122;SDS011;42426;46.104;19.656;2024-01-06T11:01:19;16.13;;;10.05;;
56122;SDS011;42426;46.104;19.656;2024-01-06T11:03:47;14.18;;;9.95;;
56122;SDS011;42426;46.104;19.656;2024-01-06T11:06:17;15.18;;;10.35;;
56122;SDS011;42426;46.104;19.656;2024-01-06T11:08:47;17.45;;;12.20;;
56122;SDS011;42426;46.104;19.656;2024-01-06T11:11:24;26.63;;;13.05;;
56122;SDS011;42426;46.104;19.656;2024-01-06T11:13:52;21.15;;;14.40;;
56122;SDS011;42426;46.104;19.656;2024-01-06T11:16:36;19.45;;;11.02;;
56122;SDS011;42426;46.104;19.656;2024-01-06T11:19:03;15.00;;;9.60;;
56122;SDS011;42426;46.104;19.656;2024-01-06T11:21:48;12.63;;;8.75;;
56122;SDS011;42426;46.104;19.656;2024-01-06T11:24:18;21.52;;;10.38;;
56122;SDS011;42426;46.104;19.656;2024-01-06T11:26:50;18.02;;;11.02;;
56122;SDS011;42426;46.104;19.656;2024-01-06T11:29:18;18.80;;;12.07;;
56122;SDS011;42426;46.104;19.656;2024-01-06T11:34:52;18.45;;;12.10;;
56122;SDS011;42426;46.104;19.656;2024-01-06T11:37:20;18.83;;;11.70;;
56122;SDS011;42426;46.104;19.656;2024-01-06T11:40:01;16.05;;;10.70;;
56122;SDS011;42426;46.104;19.656;2024-01-06T11:42:33;20.67;;;12.65;;
56122;SDS011;42426;46.104;19.656;2024-01-06T11:45:03;18.03;;;11.10;;
56122;SDS011;42426;46.104;19.656;2024-01-06T11:47:33;18.05;;;10.95;;
56122;SDS011;42426;46.104;19.656;2024-01-06T11:50:01;18.05;;;11.45;;
56122;SDS011;42426;46.104;19.656;2024-01-06T11:52:31;22.77;;;13.40;;
56122;SDS011;42426;46.104;19.656;2024-01-06T11:54:58;17.42;;;11.02;;
56122;SDS011;42426;46.104;19.656;2024-01-06T11:57:25;18.75;;;11.52;;
56122;SDS011;42426;46.104;19.656;2024-01-06T11:59:52;20.45;;;11.98;;
56122;SDS011;42426;46.104;19.656;2024-01-06T12:02:18;18.38;;;11.57;;
56122;SDS011;42426;46.104;19.656;2024-01-06T12:04:47;24.50;;;14.30;;
56122;SDS011;42426;46.104;19.656;2024-01-06T12:07:15;22.92;;;14.48;;
56122;SDS011;42426;46.104;19.656;2024-01-06T12:09:41;25.35;;;14.35;;
56122;SDS011;42426;46.104;19.656;2024-01-06T12:12:07;20.08;;;13.80;;
56122;SDS011;42426;46.104;19.656;2024-01-06T12:14:35;23.85;;;15.57;;
56122;SDS011;42426;46.104;19.656;2024-01-06T12:17:01;28.20;;;14.95;;
56122;SDS011;42426;46.104;19.656;2024-01-06T12:19:29;22.83;;;14.55;;
56122;SDS011;42426;46.104;19.656;2024-01-06T12:21:59;25.75;;;16.00;;
56122;SDS011;42426;46.104;19.656;2024-01-06T12:24:26;26.35;;;15.20;;
56122;SDS011;42426;46.104;19.656;2024-01-06T12:26:54;25.30;;;14.77;;
56122;SDS011;42426;46.104;19.656;2024-01-06T12:29:22;22.15;;;15.00;;
56122;SDS011;42426;46.104;19.656;2024-01-06T12:31:52;25.27;;;14.45;;
56122;SDS011;42426;46.104;19.656;2024-01-06T12:34:17;21.48;;;14.27;;
56122;SDS011;42426;46.104;19.656;2024-01-06T12:36:43;22.17;;;13.45;;
56122;SDS011;42426;46.104;19.656;2024-01-06T12:39:12;26.70;;;15.77;;
56122;SDS011;42426;46.104;19.656;2024-01-06T12:41:41;30.02;;;18.15;;
56122;SDS011;42426;46.104;19.656;2024-01-06T12:44:08;32.42;;;21.30;;
56122;SDS011;42426;46.104;19.656;2024-01-06T12:46:34;36.78;;;26.75;;
56122;SDS011;42426;46.104;19.656;2024-01-06T12:49:00;41.88;;;29.13;;
56122;SDS011;42426;46.104;19.656;2024-01-06T12:51:27;46.13;;;27.63;;
56122;SDS011;42426;46.104;19.656;2024-01-06T12:53:53;36.05;;;26.55;;
56122;SDS011;42426;46.104;19.656;2024-01-06T12:56:19;35.45;;;23.95;;
56122;SDS011;42426;46.104;19.656;2024-01-06T12:58:46;35.17;;;22.67;;
56122;SDS011;42426;46.104;19.656;2024-01-06T13:01:13;26.98;;;19.17;;
56122;SDS011;42426;46.104;19.656;2024-01-06T13:03:39;30.88;;;21.30;;
56122;SDS011;42426;46.104;19.656;2024-01-06T13:06:04;23.45;;;16.10;;
56122;SDS011;42426;46.104;19.656;2024-01-06T13:08:30;23.58;;;17.05;;
56122;SDS011;42426;46.104;19.656;2024-01-06T13:10:56;21.10;;;15.23;;
56122;SDS011;42426;46.104;19.656;2024-01-06T13:13:22;23.73;;;17.35;;
56122;SDS011;42426;46.104;19.656;2024-01-06T13:15:48;25.75;;;15.95;;
56122;SDS011;42426;46.104;19.656;2024-01-06T13:18:14;26.85;;;17.38;;
56122;SDS011;42426;46.104;19.656;2024-01-06T13:20:41;26.92;;;17.48;;
56122;SDS011;42426;46.104;19.656;2024-01-06T13:23:08;27.48;;;17.92;;
56122;SDS011;42426;46.104;19.656;2024-01-06T13:25:36;23.48;;;16.35;;
56122;SDS011;42426;46.104;19.656;2024-01-06T13:28:06;22.75;;;16.92;;
56122;SDS011;42426;46.104;19.656;2024-01-06T13:30:32;27.67;;;17.65;;
56122;SDS011;42426;46.104;19.656;2024-01-06T13:32:59;31.38;;;17.33;;
56122;SDS011;42426;46.104;19.656;2024-01-06T13:35:25;20.85;;;15.40;;
56122;SDS011;42426;46.104;19.656;2024-01-06T13:37:51;23.38;;;16.13;;
56122;SDS011;42426;46.104;19.656;2024-01-06T13:40:17;25.92;;;15.88;;
56122;SDS011;42426;46.104;19.656;2024-01-06T13:42:47;26.77;;;15.85;;
56122;SDS011;42426;46.104;19.656;2024-01-06T13:45:16;22.88;;;15.45;;
56122;SDS011;42426;46.104;19.656;2024-01-06T13:47:42;25.58;;;16.98;;
56122;SDS011;42426;46.104;19.656;2024-01-06T13:50:11;25.25;;;17.38;;
56122;SDS011;42426;46.104;19.656;2024-01-06T13:52:38;28.88;;;18.23;;
56122;SDS011;42426;46.104;19.656;2024-01-06T13:55:05;28.88;;;17.67;;
56122;SDS011;42426;46.104;19.656;2024-01-06T13:57:32;31.80;;;20.50;;
56122;SDS011;42426;46.104;19.656;2024-01-06T13:59:58;30.23;;;18.65;;
56122;SDS011;42426;46.104;19.656;2024-01-06T14:02:24;27.15;;;17.35;;
56122;SDS011;42426;46.104;19.656;2024-01-06T14:04:50;30.25;;;18.73;;
56122;SDS011;42426;46.104;19.656;2024-01-06T14:07:17;25.15;;;18.63;;
56122;SDS011;42426;46.104;19.656;2024-01-06T14:09:47;26.17;;;19.13;;
56122;SDS011;42426;46.104;19.656;2024-01-06T14:12:13;33.03;;;19.67;;
56122;SDS011;42426;46.104;19.656;2024-01-06T14:14:39;27.30;;;19.23;;